sensor_id;sensor_type;location;lat;lon;timestamp;P1;durP1;ratioP1;P2;durP2;ratioP2
4547;SDS011;2286;51.570;7.090;2023-05-07T00:02:17;1.13;;;0.93;;
4547;SDS011;2286;51.570;7.090;2023-05-07T00:04:44;0.40;;;0.30;;
4547;SDS011;2286;51.570;7.090;2023-05-07T00:07:11;0.73;;;0.73;;
4547;SDS011;2286;51.570;7.090;2023-05-07T00:09:38;2.40;;;1.90;;
4547;SDS011;2286;51.570;7.090;2023-05-07T00:12:05;0.50;;;0.40;;
4547;SDS011;2286;51.570;7.090;2023-05-07T00:14:32;1.30;;;1.30;;
4547;SDS011;2286;51.570;7.090;2023-05-07T00:16:58;0.40;;;0.40;;
4547;SDS011;2286;51.570;7.090;2023-05-07T00:19:26;0.80;;;0.80;;
4547;SDS011;2286;51.570;7.090;2023-05-07T00:21:53;2.30;;;1.73;;
4547;SDS011;2286;51.570;7.090;2023-05-07T00:24:20;0.93;;;0.93;;
4547;SDS011;2286;51.570;7.090;2023-05-07T00:26:47;0.50;;;0.40;;
4547;SDS011;2286;51.570;7.090;2023-05-07T00:29:14;1.33;;;1.23;;
4547;SDS011;2286;51.570;7.090;2023-05-07T00:31:41;0.50;;;0.40;;
4547;SDS011;2286;51.570;7.090;2023-05-07T00:34:08;1.23;;;1.23;;
4547;SDS011;2286;51.570;7.090;2023-05-07T00:36:36;0.90;;;0.90;;
4547;SDS011;2286;51.570;7.090;2023-05-07T00:39:03;1.97;;;1.87;;
4547;SDS011;2286;51.570;7.090;2023-05-07T00:41:29;1.07;;;1.07;;
4547;SDS011;2286;51.570;7.090;2023-05-07T00:43:56;1.57;;;1.47;;
4547;SDS011;2286;51.570;7.090;2023-05-07T00:46:23;0.90;;;0.90;;
4547;SDS011;2286;51.570;7.090;2023-05-07T00:48:51;0.80;;;0.80;;
4547;SDS011;2286;51.570;7.090;2023-05-07T00:51:18;0.73;;;0.73;;
4547;SDS011;2286;51.570;7.090;2023-05-07T00:53:46;1.10;;;1.10;;
4547;SDS011;2286;51.570;7.090;2023-05-07T00:56:13;0.93;;;0.93;;
4547;SDS011;2286;51.570;7.090;2023-05-07T00:58:40;0.87;;;0.87;;
4547;SDS011;2286;51.570;7.090;2023-05-07T01:01:07;2.40;;;1.53;;
4547;SDS011;2286;51.570;7.090;2023-05-07T01:03:34;0.77;;;0.77;;
4547;SDS011;2286;51.570;7.090;2023-05-07T01:06:01;0.80;;;0.77;;
4547;SDS011;2286;51.570;7.090;2023-05-07T01:08:29;1.07;;;1.07;;
4547;SDS011;2286;51.570;7.090;2023-05-07T01:10:58;0.60;;;0.60;;
4547;SDS011;2286;51.570;7.090;2023-05-07T01:13:26;0.73;;;0.73;;
4547;SDS011;2286;51.570;7.090;2023-05-07T01:15:53;1.47;;;1.37;;
4547;SDS011;2286;51.570;7.090;2023-05-07T01:18:20;0.90;;;0.83;;
4547;SDS011;2286;51.570;7.090;2023-05-07T01:20:48;0.67;;;0.67;;
4547;SDS011;2286;51.570;7.090;2023-05-07T01:23:16;0.40;;;0.40;;
4547;SDS011;2286;51.570;7.090;2023-05-07T01:25:50;1.43;;;1.33;;
4547;SDS011;2286;51.570;7.090;2023-05-07T01:28:18;6.20;;;2.10;;
4547;SDS011;2286;51.570;7.090;2023-05-07T01:30:45;0.90;;;0.90;;
4547;SDS011;2286;51.570;7.090;2023-05-07T01:33:14;0.60;;;0.60;;
4547;SDS011;2286;51.570;7.090;2023-05-07T01:35:45;2.07;;;1.87;;
4547;SDS011;2286;51.570;7.090;2023-05-07T01:38:16;0.50;;;0.50;;
4547;SDS011;2286;51.570;7.090;2023-05-07T01:40:44;0.40;;;0.40;;
4547;SDS011;2286;51.570;7.090;2023-05-07T01:43:11;3.07;;;1.33;;
4547;SDS011;2286;51.570;7.090;2023-05-07T01:45:38;0.57;;;0.57;;
4547;SDS011;2286;51.570;7.090;2023-05-07T01:48:06;1.33;;;0.80;;
4547;SDS011;2286;51.570;7.090;2023-05-07T01:50:34;0.73;;;0.73;;
4547;SDS011;2286;51.570;7.090;2023-05-07T01:53:03;0.93;;;0.77;;
4547;SDS011;2286;51.570;7.090;2023-05-07T01:55:31;0.60;;;0.50;;
4547;SDS011;2286;51.570;7.090;2023-05-07T01:57:58;1.17;;;0.90;;
4547;SDS011;2286;51.570;7.090;2023-05-07T02:00:25;0.90;;;0.90;;
4547;SDS011;2286;51.570;7.090;2023-05-07T02:02:52;3.07;;;2.50;;
4547;SDS011;2286;51.570;7.090;2023-05-07T02:05:19;1.43;;;1.33;;
4547;SDS011;2286;51.570;7.090;2023-05-07T02:07:45;0.40;;;0.40;;
4547;SDS011;2286;51.570;7.090;2023-05-07T02:10:12;0.47;;;0.47;;
4547;SDS011;2286;51.570;7.090;2023-05-07T02:12:40;0.60;;;0.50;;
4547;SDS011;2286;51.570;7.090;2023-05-07T02:15:07;0.97;;;0.97;;
4547;SDS011;2286;51.570;7.090;2023-05-07T02:17:39;3.03;;;1.90;;
4547;SDS011;2286;51.570;7.090;2023-05-07T02:20:23;0.63;;;0.63;;
4547;SDS011;2286;51.570;7.090;2023-05-07T02:22:50;1.80;;;1.23;;
4547;SDS011;2286;51.570;7.090;2023-05-07T02:25:17;1.07;;;1.07;;
4547;SDS011;2286;51.570;7.090;2023-05-07T02:27:45;2.50;;;2.30;;
4547;SDS011;2286;51.570;7.090;2023-05-07T02:30:13;1.43;;;1.33;;
4547;SDS011;2286;51.570;7.090;2023-05-07T02:32:40;1.07;;;0.97;;
4547;SDS011;2286;51.570;7.090;2023-05-07T02:35:07;0.77;;;0.73;;
4547;SDS011;2286;51.570;7.090;2023-05-07T02:37:34;1.83;;;1.73;;
4547;SDS011;2286;51.570;7.090;2023-05-07T02:40:01;1.20;;;1.10;;
4547;SDS011;2286;51.570;7.090;2023-05-07T02:42:29;2.00;;;1.90;;
4547;SDS011;2286;51.570;7.090;2023-05-07T02:44:58;0.67;;;0.57;;
4547;SDS011;2286;51.570;7.090;2023-05-07T02:47:24;2.40;;;2.20;;
4547;SDS011;2286;51.570;7.090;2023-05-07T02:49:53;1.43;;;1.43;;
4547;SDS011;2286;51.570;7.090;2023-05-07T02:52:20;1.60;;;1.50;;
4547;SDS011;2286;51.570;7.090;2023-05-07T02:54:47;0.60;;;0.60;;
4547;SDS011;2286;51.570;7.090;2023-05-07T02:57:14;0.60;;;0.60;;
4547;SDS011;2286;51.570;7.090;2023-05-07T02:59:41;0.83;;;0.83;;
4547;SDS011;2286;51.570;7.090;2023-05-07T03:02:10;1.03;;;1.03;;
4547;SDS011;2286;51.570;7.090;2023-05-07T03:04:37;0.80;;;0.80;;
4547;SDS011;2286;51.570;7.090;2023-05-07T03:07:04;0.70;;;0.70;;
4547;SDS011;2286;51.570;7.090;2023-05-07T03:09:31;1.37;;;1.30;;
4547;SDS011;2286;51.570;7.090;2023-05-07T03:11:58;0.50;;;0.50;;
4547;SDS011;2286;51.570;7.090;2023-05-07T03:14:26;0.40;;;0.40;;
4547;SDS011;2286;51.570;7.090;2023-05-07T03:16:53;0.73;;;0.73;;
4547;SDS011;2286;51.570;7.090;2023-05-07T03:19:22;0.97;;;0.87;;
4547;SDS011;2286;51.570;7.090;2023-05-07T03:21:49;1.10;;;1.03;;
4547;SDS011;2286;51.570;7.090;2023-05-07T03:24:16;1.57;;;1.47;;
4547;SDS011;2286;51.570;7.090;2023-05-07T03:26:43;0.50;;;0.40;;
4547;SDS011;2286;51.570;7.090;2023-05-07T03:29:09;0.50;;;0.50;;
4547;SDS011;2286;51.570;7.090;2023-05-07T03:31:36;0.40;;;0.40;;
4547;SDS011;2286;51.570;7.090;2023-05-07T03:34:04;2.77;;;2.60;;
4547;SDS011;2286;51.570;7.090;2023-05-07T03:36:32;1.70;;;1.43;;
4547;SDS011;2286;51.570;7.090;2023-05-07T03:38:59;0.70;;;0.70;;
4547;SDS011;2286;51.570;7.090;2023-05-07T03:41:26;2.30;;;0.97;;
4547;SDS011;2286;51.570;7.090;2023-05-07T03:43:54;0.47;;;0.47;;
4547;SDS011;2286;51.570;7.090;2023-05-07T03:46:21;0.90;;;0.90;;
4547;SDS011;2286;51.570;7.090;2023-05-07T03:48:51;3.57;;;1.63;;
4547;SDS011;2286;51.570;7.090;2023-05-07T03:51:18;2.10;;;1.90;;
4547;SDS011;2286;51.570;7.090;2023-05-07T03:53:46;0.67;;;0.67;;
4547;SDS011;2286;51.570;7.090;2023-05-07T03:56:13;2.17;;;1.97;;
4547;SDS011;2286;51.570;7.090;2023-05-07T03:58:40;0.60;;;0.60;;
4547;SDS011;2286;51.570;7.090;2023-05-07T04:01:07;0.70;;;0.70;;
4547;SDS011;2286;51.570;7.090;2023-05-07T04:03:34;0.40;;;0.40;;
4547;SDS011;2286;51.570;7.090;2023-05-07T04:06:01;0.60;;;0.60;;
4547;SDS011;2286;51.570;7.090;2023-05-07T04:08:28;0.40;;;0.40;;
4547;SDS011;2286;51.570;7.090;2023-05-07T04:10:57;2.00;;;1.90;;
4547;SDS011;2286;51.570;7.090;2023-05-07T04:13:24;3.40;;;2.10;;
4547;SDS011;2286;51.570;7.090;2023-05-07T04:15:51;0.60;;;0.60;;
4547;SDS011;2286;51.570;7.090;2023-05-07T04:18:18;0.90;;;0.90;;
4547;SDS011;2286;51.570;7.090;2023-05-07T04:20:46;0.40;;;0.40;;
4547;SDS011;2286;51.570;7.090;2023-05-07T04:23:14;0.40;;;0.40;;
4547;SDS011;2286;51.570;7.090;2023-05-07T04:25:41;0.70;;;0.70;;
4547;SDS011;2286;51.570;7.090;2023-05-07T04:28:09;0.90;;;0.90;;
4547;SDS011;2286;51.570;7.090;2023-05-07T04:30:36;0.67;;;0.67;;
4547;SDS011;2286;51.570;7.090;2023-05-07T04:33:03;1.70;;;0.70;;
4547;SDS011;2286;51.570;7.090;2023-05-07T04:35:31;1.07;;;1.07;;
4547;SDS011;2286;51.570;7.090;2023-05-07T04:37:58;0.70;;;0.70;;
4547;SDS011;2286;51.570;7.090;2023-05-07T04:40:26;1.13;;;1.10;;
4547;SDS011;2286;51.570;7.090;2023-05-07T04:42:53;1.27;;;1.17;;
4547;SDS011;2286;51.570;7.090;2023-05-07T04:45:21;7.93;;;1.83;;
4547;SDS011;2286;51.570;7.090;2023-05-07T04:47:49;0.70;;;0.70;;
4547;SDS011;2286;51.570;7.090;2023-05-07T04:50:16;1.70;;;1.60;;
4547;SDS011;2286;51.570;7.090;2023-05-07T04:52:44;0.80;;;0.80;;
4547;SDS011;2286;51.570;7.090;2023-05-07T04:55:11;0.40;;;0.40;;
4547;SDS011;2286;51.570;7.090;2023-05-07T04:57:38;0.57;;;0.57;;
4547;SDS011;2286;51.570;7.090;2023-05-07T05:00:06;0.90;;;0.90;;
4547;SDS011;2286;51.570;7.090;2023-05-07T05:02:36;0.50;;;0.50;;
4547;SDS011;2286;51.570;7.090;2023-05-07T05:05:03;1.23;;;1.23;;
4547;SDS011;2286;51.570;7.090;2023-05-07T05:07:31;0.93;;;0.93;;
4547;SDS011;2286;51.570;7.090;2023-05-07T05:09:58;2.10;;;0.57;;
4547;SDS011;2286;51.570;7.090;2023-05-07T05:12:25;0.60;;;0.60;;
4547;SDS011;2286;51.570;7.090;2023-05-07T05:14:52;1.30;;;1.30;;
4547;SDS011;2286;51.570;7.090;2023-05-07T05:17:19;8.13;;;7.57;;
4547;SDS011;2286;51.570;7.090;2023-05-07T05:19:47;19.47;;;17.87;;
4547;SDS011;2286;51.570;7.090;2023-05-07T05:22:14;22.33;;;20.33;;
4547;SDS011;2286;51.570;7.090;2023-05-07T05:24:41;22.67;;;20.73;;
4547;SDS011;2286;51.570;7.090;2023-05-07T05:27:08;22.00;;;20.10;;
4547;SDS011;2286;51.570;7.090;2023-05-07T05:29:35;23.37;;;21.03;;
4547;SDS011;2286;51.570;7.090;2023-05-07T05:32:02;25.00;;;21.50;;
4547;SDS011;2286;51.570;7.090;2023-05-07T05:34:29;23.07;;;21.00;;
4547;SDS011;2286;51.570;7.090;2023-05-07T05:36:59;22.47;;;20.70;;
4547;SDS011;2286;51.570;7.090;2023-05-07T05:39:26;21.83;;;20.03;;
4547;SDS011;2286;51.570;7.090;2023-05-07T05:41:53;23.50;;;21.20;;
4547;SDS011;2286;51.570;7.090;2023-05-07T05:44:20;20.77;;;19.07;;
4547;SDS011;2286;51.570;7.090;2023-05-07T05:46:47;22.27;;;20.47;;
4547;SDS011;2286;51.570;7.090;2023-05-07T05:49:14;21.03;;;19.23;;
4547;SDS011;2286;51.570;7.090;2023-05-07T05:51:41;22.03;;;20.17;;
4547;SDS011;2286;51.570;7.090;2023-05-07T05:54:10;20.33;;;18.73;;
4547;SDS011;2286;51.570;7.090;2023-05-07T05:56:37;21.60;;;19.50;;
4547;SDS011;2286;51.570;7.090;2023-05-07T05:59:04;19.77;;;18.07;;
4547;SDS011;2286;51.570;7.090;2023-05-07T06:01:31;19.10;;;17.63;;
4547;SDS011;2286;51.570;7.090;2023-05-07T06:03:58;20.00;;;18.50;;
4547;SDS011;2286;51.570;7.090;2023-05-07T06:06:25;19.10;;;17.50;;
4547;SDS011;2286;51.570;7.090;2023-05-07T06:08:52;20.83;;;18.33;;
4547;SDS011;2286;51.570;7.090;2023-05-07T06:11:20;18.63;;;16.93;;
4547;SDS011;2286;51.570;7.090;2023-05-07T06:13:47;17.20;;;15.77;;
4547;SDS011;2286;51.570;7.090;2023-05-07T06:16:14;16.80;;;15.30;;
4547;SDS011;2286;51.570;7.090;2023-05-07T06:18:41;16.23;;;14.93;;
4547;SDS011;2286;51.570;7.090;2023-05-07T06:21:09;14.30;;;13.10;;
4547;SDS011;2286;51.570;7.090;2023-05-07T06:23:36;14.40;;;13.30;;
4547;SDS011;2286;51.570;7.090;2023-05-07T06:26:03;13.70;;;12.47;;
4547;SDS011;2286;51.570;7.090;2023-05-07T06:28:31;16.50;;;11.80;;
4547;SDS011;2286;51.570;7.090;2023-05-07T06:31:10;14.27;;;13.10;;
4547;SDS011;2286;51.570;7.090;2023-05-07T06:33:38;12.07;;;11.20;;
4547;SDS011;2286;51.570;7.090;2023-05-07T06:36:05;12.70;;;11.80;;
4547;SDS011;2286;51.570;7.090;2023-05-07T06:38:33;12.43;;;11.50;;
4547;SDS011;2286;51.570;7.090;2023-05-07T06:41:00;12.03;;;11.20;;
4547;SDS011;2286;51.570;7.090;2023-05-07T06:43:26;11.63;;;10.63;;
4547;SDS011;2286;51.570;7.090;2023-05-07T06:45:55;11.70;;;10.90;;
4547;SDS011;2286;51.570;7.090;2023-05-07T06:48:22;11.23;;;10.33;;
4547;SDS011;2286;51.570;7.090;2023-05-07T06:50:49;10.10;;;9.30;;
4547;SDS011;2286;51.570;7.090;2023-05-07T06:53:16;9.73;;;9.13;;
4547;SDS011;2286;51.570;7.090;2023-05-07T06:55:43;10.23;;;9.43;;
4547;SDS011;2286;51.570;7.090;2023-05-07T06:58:10;10.30;;;9.50;;
4547;SDS011;2286;51.570;7.090;2023-05-07T07:00:37;10.20;;;8.00;;
4547;SDS011;2286;51.570;7.090;2023-05-07T07:03:05;9.97;;;9.07;;
4547;SDS011;2286;51.570;7.090;2023-05-07T07:05:32;10.23;;;9.30;;
4547;SDS011;2286;51.570;7.090;2023-05-07T07:07:59;9.50;;;8.80;;
4547;SDS011;2286;51.570;7.090;2023-05-07T07:10:26;14.50;;;8.33;;
4547;SDS011;2286;51.570;7.090;2023-05-07T07:12:53;9.97;;;8.97;;
4547;SDS011;2286;51.570;7.090;2023-05-07T07:15:20;10.17;;;9.37;;
4547;SDS011;2286;51.570;7.090;2023-05-07T07:17:47;8.20;;;7.70;;
4547;SDS011;2286;51.570;7.090;2023-05-07T07:20:16;9.20;;;8.37;;
4547;SDS011;2286;51.570;7.090;2023-05-07T07:22:43;8.90;;;8.27;;
4547;SDS011;2286;51.570;7.090;2023-05-07T07:25:09;11.00;;;8.13;;
4547;SDS011;2286;51.570;7.090;2023-05-07T07:27:37;9.47;;;8.77;;
4547;SDS011;2286;51.570;7.090;2023-05-07T07:30:05;9.30;;;8.30;;
4547;SDS011;2286;51.570;7.090;2023-05-07T07:32:33;9.83;;;8.83;;
4547;SDS011;2286;51.570;7.090;2023-05-07T07:35:00;9.43;;;8.53;;
4547;SDS011;2286;51.570;7.090;2023-05-07T07:37:29;9.57;;;8.63;;
4547;SDS011;2286;51.570;7.090;2023-05-07T07:39:56;9.50;;;8.60;;
4547;SDS011;2286;51.570;7.090;2023-05-07T07:42:23;11.07;;;10.20;;
4547;SDS011;2286;51.570;7.090;2023-05-07T07:44:49;9.83;;;9.00;;
4547;SDS011;2286;51.570;7.090;2023-05-07T07:47:17;9.63;;;8.70;;
4547;SDS011;2286;51.570;7.090;2023-05-07T07:49:44;11.37;;;10.03;;
4547;SDS011;2286;51.570;7.090;2023-05-07T07:52:11;9.60;;;8.90;;
4547;SDS011;2286;51.570;7.090;2023-05-07T07:54:39;9.50;;;8.80;;
4547;SDS011;2286;51.570;7.090;2023-05-07T07:57:06;13.10;;;10.10;;
4547;SDS011;2286;51.570;7.090;2023-05-07T07:59:33;9.83;;;9.10;;
4547;SDS011;2286;51.570;7.090;2023-05-07T08:02:00;10.50;;;9.23;;
4547;SDS011;2286;51.570;7.090;2023-05-07T08:04:27;9.07;;;8.27;;
4547;SDS011;2286;51.570;7.090;2023-05-07T08:06:54;9.47;;;8.67;;
4547;SDS011;2286;51.570;7.090;2023-05-07T08:09:21;10.60;;;9.70;;
4547;SDS011;2286;51.570;7.090;2023-05-07T08:11:49;11.03;;;10.03;;
4547;SDS011;2286;51.570;7.090;2023-05-07T08:14:16;12.30;;;11.00;;
4547;SDS011;2286;51.570;7.090;2023-05-07T08:16:43;10.60;;;9.50;;
4547;SDS011;2286;51.570;7.090;2023-05-07T08:19:10;11.27;;;10.30;;
4547;SDS011;2286;51.570;7.090;2023-05-07T08:21:38;11.67;;;10.63;;
4547;SDS011;2286;51.570;7.090;2023-05-07T08:24:05;11.70;;;10.50;;
4547;SDS011;2286;51.570;7.090;2023-05-07T08:26:32;10.47;;;9.57;;
4547;SDS011;2286;51.570;7.090;2023-05-07T08:29:02;12.83;;;10.30;;
4547;SDS011;2286;51.570;7.090;2023-05-07T08:31:29;11.93;;;10.83;;
4547;SDS011;2286;51.570;7.090;2023-05-07T08:33:56;10.90;;;9.93;;
4547;SDS011;2286;51.570;7.090;2023-05-07T08:36:24;11.50;;;10.47;;
4547;SDS011;2286;51.570;7.090;2023-05-07T08:38:51;12.77;;;11.57;;
4547;SDS011;2286;51.570;7.090;2023-05-07T08:41:18;10.63;;;9.63;;
4547;SDS011;2286;51.570;7.090;2023-05-07T08:43:47;11.77;;;10.77;;
4547;SDS011;2286;51.570;7.090;2023-05-07T08:46:17;10.87;;;9.80;;
4547;SDS011;2286;51.570;7.090;2023-05-07T08:48:45;11.70;;;10.70;;
4547;SDS011;2286;51.570;7.090;2023-05-07T08:51:15;12.10;;;10.87;;
4547;SDS011;2286;51.570;7.090;2023-05-07T08:53:43;12.67;;;11.43;;
4547;SDS011;2286;51.570;7.090;2023-05-07T08:56:13;12.83;;;11.73;;
4547;SDS011;2286;51.570;7.090;2023-05-07T08:58:40;12.20;;;10.87;;
4547;SDS011;2286;51.570;7.090;2023-05-07T09:01:08;11.23;;;10.23;;
4547;SDS011;2286;51.570;7.090;2023-05-07T09:03:40;11.57;;;10.57;;
4547;SDS011;2286;51.570;7.090;2023-05-07T09:06:10;11.27;;;10.23;;
4547;SDS011;2286;51.570;7.090;2023-05-07T09:08:37;11.17;;;10.20;;
4547;SDS011;2286;51.570;7.090;2023-05-07T09:11:04;11.63;;;10.53;;
4547;SDS011;2286;51.570;7.090;2023-05-07T09:13:31;11.70;;;10.50;;
4547;SDS011;2286;51.570;7.090;2023-05-07T09:15:58;11.30;;;10.30;;
4547;SDS011;2286;51.570;7.090;2023-05-07T09:18:25;12.63;;;11.47;;
4547;SDS011;2286;51.570;7.090;2023-05-07T09:20:54;11.73;;;10.73;;
4547;SDS011;2286;51.570;7.090;2023-05-07T09:23:21;10.17;;;9.37;;
4547;SDS011;2286;51.570;7.090;2023-05-07T09:25:48;10.07;;;9.27;;
4547;SDS011;2286;51.570;7.090;2023-05-07T09:28:15;11.57;;;10.57;;
4547;SDS011;2286;51.570;7.090;2023-05-07T09:30:42;12.60;;;10.77;;
4547;SDS011;2286;51.570;7.090;2023-05-07T09:33:09;12.40;;;11.20;;
4547;SDS011;2286;51.570;7.090;2023-05-07T09:35:37;10.90;;;10.00;;
4547;SDS011;2286;51.570;7.090;2023-05-07T09:38:05;10.30;;;9.60;;
4547;SDS011;2286;51.570;7.090;2023-05-07T09:40:33;10.13;;;9.30;;
4547;SDS011;2286;51.570;7.090;2023-05-07T09:43:08;10.47;;;9.37;;
4547;SDS011;2286;51.570;7.090;2023-05-07T09:45:36;10.63;;;9.73;;
4547;SDS011;2286;51.570;7.090;2023-05-07T09:48:04;9.80;;;9.10;;
4547;SDS011;2286;51.570;7.090;2023-05-07T09:50:35;8.90;;;8.30;;
4547;SDS011;2286;51.570;7.090;2023-05-07T09:53:03;10.17;;;9.27;;
4547;SDS011;2286;51.570;7.090;2023-05-07T09:55:32;9.20;;;8.33;;
4547;SDS011;2286;51.570;7.090;2023-05-07T09:57:59;9.87;;;8.90;;
4547;SDS011;2286;51.570;7.090;2023-05-07T10:00:27;12.30;;;7.73;;
4547;SDS011;2286;51.570;7.090;2023-05-07T10:02:57;10.50;;;7.97;;
4547;SDS011;2286;51.570;7.090;2023-05-07T10:05:24;9.00;;;8.20;;
4547;SDS011;2286;51.570;7.090;2023-05-07T10:07:52;8.03;;;7.43;;
4547;SDS011;2286;51.570;7.090;2023-05-07T10:10:20;8.93;;;7.40;;
4547;SDS011;2286;51.570;7.090;2023-05-07T10:12:49;6.70;;;6.20;;
4547;SDS011;2286;51.570;7.090;2023-05-07T10:15:17;7.87;;;7.20;;
4547;SDS011;2286;51.570;7.090;2023-05-07T10:17:44;9.13;;;8.40;;
4547;SDS011;2286;51.570;7.090;2023-05-07T10:20:11;6.83;;;6.23;;
4547;SDS011;2286;51.570;7.090;2023-05-07T10:22:40;7.50;;;6.90;;
4547;SDS011;2286;51.570;7.090;2023-05-07T10:25:11;7.00;;;6.50;;
4547;SDS011;2286;51.570;7.090;2023-05-07T10:27:42;7.20;;;6.37;;
4547;SDS011;2286;51.570;7.090;2023-05-07T10:30:14;6.40;;;5.83;;
4547;SDS011;2286;51.570;7.090;2023-05-07T10:32:49;6.43;;;5.83;;
4547;SDS011;2286;51.570;7.090;2023-05-07T10:35:17;5.10;;;4.70;;
4547;SDS011;2286;51.570;7.090;2023-05-07T10:37:48;5.57;;;5.17;;
4547;SDS011;2286;51.570;7.090;2023-05-07T10:40:15;5.73;;;5.07;;
4547;SDS011;2286;51.570;7.090;2023-05-07T10:42:54;8.17;;;5.00;;
4547;SDS011;2286;51.570;7.090;2023-05-07T10:45:23;7.60;;;5.80;;
4547;SDS011;2286;51.570;7.090;2023-05-07T10:48:07;6.63;;;5.27;;
4547;SDS011;2286;51.570;7.090;2023-05-07T10:50:36;5.10;;;4.70;;
4547;SDS011;2286;51.570;7.090;2023-05-07T10:53:22;5.17;;;4.83;;
4547;SDS011;2286;51.570;7.090;2023-05-07T10:55:51;4.53;;;4.23;;
4547;SDS011;2286;51.570;7.090;2023-05-07T10:58:40;5.13;;;4.73;;
4547;SDS011;2286;51.570;7.090;2023-05-07T11:01:08;6.37;;;6.03;;
4547;SDS011;2286;51.570;7.090;2023-05-07T11:03:37;5.97;;;5.47;;
4547;SDS011;2286;51.570;7.090;2023-05-07T11:06:40;6.43;;;5.97;;
4547;SDS011;2286;51.570;7.090;2023-05-07T11:09:07;7.00;;;5.50;;
4547;SDS011;2286;51.570;7.090;2023-05-07T11:11:46;5.37;;;4.97;;
4547;SDS011;2286;51.570;7.090;2023-05-07T11:14:25;5.50;;;5.17;;
4547;SDS011;2286;51.570;7.090;2023-05-07T11:17:11;5.10;;;4.70;;
4547;SDS011;2286;51.570;7.090;2023-05-07T11:19:47;4.73;;;4.43;;
4547;SDS011;2286;51.570;7.090;2023-05-07T11:25:06;4.37;;;4.07;;
4547;SDS011;2286;51.570;7.090;2023-05-07T11:27:33;4.67;;;4.27;;
4547;SDS011;2286;51.570;7.090;2023-05-07T11:30:00;5.47;;;4.97;;
4547;SDS011;2286;51.570;7.090;2023-05-07T11:32:29;5.70;;;5.30;;
4547;SDS011;2286;51.570;7.090;2023-05-07T11:34:57;4.93;;;4.53;;
4547;SDS011;2286;51.570;7.090;2023-05-07T11:37:26;6.17;;;4.80;;
4547;SDS011;2286;51.570;7.090;2023-05-07T11:40:02;5.10;;;4.80;;
4547;SDS011;2286;51.570;7.090;2023-05-07T11:42:31;5.23;;;4.93;;
4547;SDS011;2286;51.570;7.090;2023-05-07T11:44:59;7.57;;;5.00;;
4547;SDS011;2286;51.570;7.090;2023-05-07T11:47:29;4.93;;;4.53;;
4547;SDS011;2286;51.570;7.090;2023-05-07T11:50:01;4.93;;;4.43;;
4547;SDS011;2286;51.570;7.090;2023-05-07T11:52:30;5.13;;;4.80;;
4547;SDS011;2286;51.570;7.090;2023-05-07T11:54:58;4.90;;;4.60;;
4547;SDS011;2286;51.570;7.090;2023-05-07T11:57:26;5.20;;;4.90;;
4547;SDS011;2286;51.570;7.090;2023-05-07T11:59:53;4.97;;;4.67;;
4547;SDS011;2286;51.570;7.090;2023-05-07T12:02:20;6.27;;;5.80;;
4547;SDS011;2286;51.570;7.090;2023-05-07T12:04:48;5.63;;;5.23;;
4547;SDS011;2286;51.570;7.090;2023-05-07T12:07:15;5.47;;;5.10;;
4547;SDS011;2286;51.570;7.090;2023-05-07T12:09:43;4.90;;;4.50;;
4547;SDS011;2286;51.570;7.090;2023-05-07T12:12:11;6.83;;;5.60;;
4547;SDS011;2286;51.570;7.090;2023-05-07T12:14:40;5.17;;;4.87;;
4547;SDS011;2286;51.570;7.090;2023-05-07T12:17:08;4.67;;;4.33;;
4547;SDS011;2286;51.570;7.090;2023-05-07T12:19:38;6.10;;;5.60;;
4547;SDS011;2286;51.570;7.090;2023-05-07T12:22:07;6.60;;;5.90;;
4547;SDS011;2286;51.570;7.090;2023-05-07T12:24:43;6.43;;;5.93;;
4547;SDS011;2286;51.570;7.090;2023-05-07T12:27:11;5.13;;;4.63;;
4547;SDS011;2286;51.570;7.090;2023-05-07T12:29:38;6.93;;;6.30;;
4547;SDS011;2286;51.570;7.090;2023-05-07T12:32:06;6.37;;;5.87;;
4547;SDS011;2286;51.570;7.090;2023-05-07T12:34:39;6.60;;;6.10;;
4547;SDS011;2286;51.570;7.090;2023-05-07T12:37:06;7.00;;;6.30;;
4547;SDS011;2286;51.570;7.090;2023-05-07T12:39:34;5.77;;;5.40;;
4547;SDS011;2286;51.570;7.090;2023-05-07T12:42:01;5.77;;;5.33;;
4547;SDS011;2286;51.570;7.090;2023-05-07T12:44:29;6.10;;;5.60;;
4547;SDS011;2286;51.570;7.090;2023-05-07T12:46:57;6.77;;;6.37;;
4547;SDS011;2286;51.570;7.090;2023-05-07T12:49:25;6.80;;;6.10;;
4547;SDS011;2286;51.570;7.090;2023-05-07T12:51:52;8.37;;;7.67;;
4547;SDS011;2286;51.570;7.090;2023-05-07T12:54:30;7.53;;;6.83;;
4547;SDS011;2286;51.570;7.090;2023-05-07T12:57:02;7.47;;;6.03;;
4547;SDS011;2286;51.570;7.090;2023-05-07T12:59:33;5.70;;;5.20;;
4547;SDS011;2286;51.570;7.090;2023-05-07T13:02:00;5.60;;;5.20;;
4547;SDS011;2286;51.570;7.090;2023-05-07T13:04:27;7.03;;;6.37;;
4547;SDS011;2286;51.570;7.090;2023-05-07T13:06:54;6.17;;;5.67;;
4547;SDS011;2286;51.570;7.090;2023-05-07T13:09:21;6.00;;;5.60;;
4547;SDS011;2286;51.570;7.090;2023-05-07T13:11:50;7.03;;;6.30;;
4547;SDS011;2286;51.570;7.090;2023-05-07T13:14:17;6.70;;;6.10;;
4547;SDS011;2286;51.570;7.090;2023-05-07T13:16:45;6.43;;;5.83;;
4547;SDS011;2286;51.570;7.090;2023-05-07T13:19:12;6.57;;;6.00;;
4547;SDS011;2286;51.570;7.090;2023-05-07T13:21:39;6.77;;;6.20;;
4547;SDS011;2286;51.570;7.090;2023-05-07T13:24:07;7.53;;;6.93;;
4547;SDS011;2286;51.570;7.090;2023-05-07T13:26:34;7.77;;;7.07;;
4547;SDS011;2286;51.570;7.090;2023-05-07T13:29:02;7.50;;;6.90;;
4547;SDS011;2286;51.570;7.090;2023-05-07T13:31:29;7.63;;;6.93;;
4547;SDS011;2286;51.570;7.090;2023-05-07T13:33:56;6.03;;;5.43;;
4547;SDS011;2286;51.570;7.090;2023-05-07T13:36:23;8.73;;;7.00;;
4547;SDS011;2286;51.570;7.090;2023-05-07T13:38:50;7.13;;;6.57;;
4547;SDS011;2286;51.570;7.090;2023-05-07T13:41:17;7.37;;;6.67;;
4547;SDS011;2286;51.570;7.090;2023-05-07T13:43:45;7.80;;;7.20;;
4547;SDS011;2286;51.570;7.090;2023-05-07T13:46:13;6.93;;;6.33;;
4547;SDS011;2286;51.570;7.090;2023-05-07T13:48:40;7.53;;;6.93;;
4547;SDS011;2286;51.570;7.090;2023-05-07T13:51:07;6.90;;;6.40;;
4547;SDS011;2286;51.570;7.090;2023-05-07T13:53:34;7.67;;;6.97;;
4547;SDS011;2286;51.570;7.090;2023-05-07T13:56:01;8.00;;;7.40;;
4547;SDS011;2286;51.570;7.090;2023-05-07T13:58:29;9.43;;;8.63;;
4547;SDS011;2286;51.570;7.090;2023-05-07T14:00:56;8.03;;;7.33;;
4547;SDS011;2286;51.570;7.090;2023-05-07T14:03:24;8.43;;;7.70;;
4547;SDS011;2286;51.570;7.090;2023-05-07T14:05:52;8.63;;;7.83;;
4547;SDS011;2286;51.570;7.090;2023-05-07T14:08:19;8.63;;;7.83;;
4547;SDS011;2286;51.570;7.090;2023-05-07T14:10:46;7.60;;;7.03;;
4547;SDS011;2286;51.570;7.090;2023-05-07T14:13:13;8.73;;;8.10;;
4547;SDS011;2286;51.570;7.090;2023-05-07T14:15:39;7.43;;;6.80;;
4547;SDS011;2286;51.570;7.090;2023-05-07T14:18:11;7.70;;;7.07;;
4547;SDS011;2286;51.570;7.090;2023-05-07T14:20:39;8.43;;;7.07;;
4547;SDS011;2286;51.570;7.090;2023-05-07T14:23:08;7.47;;;6.77;;
4547;SDS011;2286;51.570;7.090;2023-05-07T14:25:35;7.30;;;6.70;;
4547;SDS011;2286;51.570;7.090;2023-05-07T14:28:02;8.40;;;7.60;;
4547;SDS011;2286;51.570;7.090;2023-05-07T14:30:29;8.20;;;7.40;;
4547;SDS011;2286;51.570;7.090;2023-05-07T14:32:55;9.73;;;9.03;;
4547;SDS011;2286;51.570;7.090;2023-05-07T14:35:22;8.93;;;8.23;;
4547;SDS011;2286;51.570;7.090;2023-05-07T14:37:51;8.70;;;8.00;;
4547;SDS011;2286;51.570;7.090;2023-05-07T14:40:18;10.77;;;9.67;;
4547;SDS011;2286;51.570;7.090;2023-05-07T14:42:45;11.00;;;9.93;;
4547;SDS011;2286;51.570;7.090;2023-05-07T14:45:12;15.50;;;10.97;;
4547;SDS011;2286;51.570;7.090;2023-05-07T14:47:38;11.83;;;10.83;;
4547;SDS011;2286;51.570;7.090;2023-05-07T14:50:05;11.47;;;10.47;;
4547;SDS011;2286;51.570;7.090;2023-05-07T14:52:33;11.47;;;10.47;;
4547;SDS011;2286;51.570;7.090;2023-05-07T14:55:01;13.33;;;12.13;;
4547;SDS011;2286;51.570;7.090;2023-05-07T14:57:28;12.13;;;11.10;;
4547;SDS011;2286;51.570;7.090;2023-05-07T14:59:55;13.20;;;11.90;;
4547;SDS011;2286;51.570;7.090;2023-05-07T15:02:22;13.10;;;12.00;;
4547;SDS011;2286;51.570;7.090;2023-05-07T15:04:49;13.00;;;11.80;;
4547;SDS011;2286;51.570;7.090;2023-05-07T15:07:16;13.03;;;11.80;;
4547;SDS011;2286;51.570;7.090;2023-05-07T15:09:43;12.60;;;11.53;;
4547;SDS011;2286;51.570;7.090;2023-05-07T15:12:11;12.30;;;11.20;;
4547;SDS011;2286;51.570;7.090;2023-05-07T15:14:39;13.00;;;11.60;;
4547;SDS011;2286;51.570;7.090;2023-05-07T15:17:07;12.17;;;10.97;;